Terminal Aerodrome Forecast
Issued by NWS Jackson, MS

Home | Current Version | Previous Version | Text Only | Print | Product List | Glossary On
Versions: 1 2 3 4 5 6 7 8 9 10 11 12 13 14 15 16
674
FTUS44 KMEG 201720
TAFTUP
TAF
KTUP 201720Z 2018/2118 08010KT P6SM FEW250
     FM210100 06005KT P6SM SCT250
     FM211500 15012KT P6SM FEW045=

USA.gov is the U.S. government's official web portal to all federal, state and local government web resources and services.